Josephine, Texas
Current Conditions -  °F | °C
As of 8:15 PM on Saturday 22 Nov 2014 (Local Time) from KF46 Reporting Station
Moderate Rain Moderate Rain  
Wind Chill: 60°   Ceiling: 400
Heat Index: 60°   Visibility: 2.5mi
Dew Point: 60°   Wind: 17mph
Humidity: 100%   Direction: 30°NNE
Pressure: 29.78"   Gusts: 22mph
Location:  33.06°N, 96.31°W
Report Text: KF46 230215Z AUTO 03015G19KT 2 1/2SM RA BKN004 BKN011 OVC070 16/16 A2978 RMK AO2 LTG DSNT SE AND S P0005 T01570157
Loading
Personal Weather Stations






























Interactive Weather Map New forecast layout! Learn more

10-Day Weather Forecast

Advertisements
Track Severe Weather on mobile